This is the latest recevied weather packets stored in our database for station/object KG7FOQ-13. If no packets are shown the sender has not sent any weather packets the latest 1 day(s).
| Time | Temp. | Humidity | Pressure | Rain* | Wind** | Luminosity | Snow |
|---|---|---|---|---|---|---|---|
| 1778036053 | 14.44° C | 54% | 1008 hPa | 0 mm | 6.26 m/s, 75° | - | - |
| 1778035752 | 14.44° C | 54% | 1008 hPa | 0 mm | 8.94 m/s, 66° | - | - |
| 1778035452 | 15° C | 53% | 1007.8 hPa | 0 mm | 10.73 m/s, 75° | - | - |
| 1778035151 | 15.56° C | 48% | 1007.6 hPa | 0 mm | 9.39 m/s, 76° | - | - |
| 1778034851 | 15.56° C | 49% | 1007.5 hPa | 0 mm | 8.49 m/s, 72° | - | - |
| 1778034551 | 15.56° C | 48% | 1007.5 hPa | 0 mm | 8.05 m/s, 60° | - | - |
| 1778034250 | 15.56° C | 48% | 1007.3 hPa | 0 mm | 8.49 m/s, 101° | - | - |
| 1778033949 | 15.56° C | 49% | 1007.5 hPa | 0 mm | 7.6 m/s, 72° | - | - |
| 1778033649 | 15.56° C | 50% | 1007.6 hPa | 0 mm | 8.05 m/s, 17° | - | - |
| 1778033348 | 16.11° C | 45% | 1007.4 hPa | 0 mm | 13.41 m/s, 15° | - | - |
| 1778033048 | 17.22° C | 42% | 1007 hPa | 0 mm | 9.39 m/s, 48° | - | - |
| 1778032747 | 17.22° C | 38% | 1006.5 hPa | 0 mm | 14.75 m/s, 27° | - | - |
| 1778032447 | 20.56° C | 32% | 1006.8 hPa | 0 mm | 6.71 m/s, 290° | - | - |
| 1778032146 | 20.56° C | 30% | 1006.1 hPa | 0 mm | 10.73 m/s, 271° | - | - |
| 1778031545 | 20.56° C | 31% | 1006.2 hPa | 0 mm | 7.6 m/s, 263° | - | - |
| 1778031245 | 20.56° C | 31% | 1006.1 hPa | 0 mm | 7.6 m/s, 266° | - | - |
| 1778030944 | 20.56° C | 29% | 1006.2 hPa | 0 mm | 7.15 m/s, 259° | - | - |
| 1778030644 | 20.56° C | 29% | 1006.5 hPa | 0 mm | 6.26 m/s, 291° | - | - |
| 1778030343 | 20.56° C | 31% | 1006.5 hPa | 0 mm | 1.34 m/s, 240° | - | - |
| 1778030043 | 20.56° C | 30% | 1006.5 hPa | 0 mm | 1.34 m/s, 221° | - | - |
| 1778029742 | 20.56° C | 31% | 1006.7 hPa | 0 mm | 0.45 m/s, 245° | - | - |
| 1778029442 | 20.56° C | 31% | 1006.6 hPa | 0 mm | 0.45 m/s, 226° | - | - |
| 1778029140 | 20.56° C | 31% | 1006.7 hPa | 0 mm | 0.89 m/s, 245° | - | - |
| 1778028840 | 20.56° C | 30% | 1006.7 hPa | 0 mm | 2.24 m/s, 249° | - | - |
| 1778028238 | 20.56° C | 30% | 1006.8 hPa | 0 mm | 0.89 m/s, 167° | - | - |
* Rain latest hour (hover to see other rain measurements)
** Current wind speed in m/s (hover to see current wind gust speed)